createdAt,value
2019-06-07T00:00:51.055Z,19.10
2019-06-07T00:03:28.966Z,19.20
2019-06-07T00:05:45.664Z,19.20
2019-06-07T00:08:25.104Z,19.30
2019-06-07T00:10:46.242Z,19.30
2019-06-07T00:13:15.210Z,19.30
2019-06-07T00:15:41.231Z,19.30
2019-06-07T00:18:12.266Z,19.30
2019-06-07T00:20:36.248Z,19.30
2019-06-07T00:23:02.794Z,19.10
2019-06-07T00:25:29.305Z,19.10
2019-06-07T00:27:55.795Z,19.00
2019-06-07T00:30:41.066Z,19.10
2019-06-07T00:32:51.346Z,19.10
2019-06-07T00:35:22.058Z,19.10
2019-06-07T00:37:46.394Z,18.90
2019-06-07T00:40:17.862Z,18.90
2019-06-07T00:42:41.441Z,18.70
2019-06-07T00:45:10.916Z,18.70
2019-06-07T00:47:37.172Z,18.70
2019-06-07T00:50:04.538Z,18.60
2019-06-07T00:54:59.644Z,18.50
2019-06-07T00:57:26.041Z,18.50
2019-06-07T00:59:53.097Z,18.50
2019-06-07T01:02:24.710Z,18.50
2019-06-07T01:04:48.071Z,18.50
2019-06-07T01:07:17.113Z,18.40
2019-06-07T01:09:42.648Z,18.30
2019-06-07T01:12:09.025Z,18.30
2019-06-07T01:14:35.307Z,18.30
2019-06-07T01:17:39.687Z,18.30
2019-06-07T01:19:52.308Z,18.30
2019-06-07T01:22:20.638Z,18.40
2019-06-07T01:24:46.985Z,18.30
2019-06-07T01:27:13.449Z,18.40
2019-06-07T01:29:39.720Z,18.40
2019-06-07T01:32:06.072Z,18.30
2019-06-07T01:34:32.318Z,18.30
2019-06-07T01:36:59.014Z,18.30
2019-06-07T01:39:29.838Z,18.50
2019-06-07T01:41:53.897Z,18.50
2019-06-07T01:44:23.636Z,18.40
2019-06-07T01:46:48.435Z,18.40
2019-06-07T01:49:14.693Z,18.30
2019-06-07T01:51:40.951Z,18.20
2019-06-07T01:54:49.664Z,18.30
2019-06-07T01:56:36.620Z,18.30
2019-06-07T01:59:03.362Z,18.50
2019-06-07T02:01:35.227Z,18.60
2019-06-07T02:03:58.658Z,18.60
2019-06-07T02:06:27.964Z,18.60
2019-06-07T02:08:54.512Z,18.50
2019-06-07T02:11:26.730Z,18.40
2019-06-07T02:13:54.561Z,18.40
2019-06-07T02:16:21.833Z,18.40
2019-06-07T02:19:01.922Z,18.40
2019-06-07T02:21:37.435Z,18.30
2019-06-07T02:24:11.874Z,18.40
2019-06-07T02:26:41.491Z,18.30
2019-06-07T02:29:10.521Z,18.30
2019-06-07T02:31:39.840Z,18.30
2019-06-07T02:34:06.254Z,18.30
2019-06-07T02:36:39.127Z,18.30
2019-06-07T02:39:01.361Z,18.30
2019-06-07T02:41:33.626Z,18.30
2019-06-07T02:43:56.072Z,18.30
2019-06-07T02:46:31.924Z,18.10
2019-06-07T02:48:53.115Z,18.10
2019-06-07T02:51:19.734Z,18.00
2019-06-07T02:53:46.182Z,18.00
2019-06-07T02:56:37.848Z,18.00
2019-06-07T02:58:42.165Z,18.10
2019-06-07T03:01:20.165Z,18.10
2019-06-07T03:03:46.178Z,18.20
2019-06-07T03:06:13.659Z,18.20
2019-06-07T03:08:43.205Z,18.20
2019-06-07T03:11:12.241Z,18.20
2019-06-07T03:13:40.992Z,18.30
2019-06-07T03:16:09.966Z,18.30
2019-06-07T03:18:52.333Z,18.30
2019-06-07T03:21:22.110Z,18.40
2019-06-07T03:23:54.187Z,18.40
2019-06-07T03:26:22.842Z,18.30
2019-06-07T03:28:49.270Z,18.30
2019-06-07T03:31:15.812Z,18.30
2019-06-07T03:33:45.123Z,18.40
2019-06-07T03:36:23.314Z,18.40
2019-06-07T03:38:39.936Z,18.50
2019-06-07T03:41:06.951Z,18.60
2019-06-07T03:43:37.761Z,18.70
2019-06-07T03:46:01.888Z,18.80
2019-06-07T03:48:28.893Z,18.80
2019-06-07T03:51:04.604Z,18.90
2019-06-07T03:53:25.509Z,18.80
2019-06-07T03:55:52.006Z,18.90
2019-06-07T03:58:31.195Z,18.90
2019-06-07T04:00:47.427Z,18.90
2019-06-07T04:03:32.928Z,18.80
2019-06-07T04:05:43.648Z,18.70
2019-06-07T04:08:10.085Z,18.60
2019-06-07T04:10:53.480Z,18.60
2019-06-07T04:13:04.797Z,18.60
2019-06-07T04:15:33.469Z,18.50
2019-06-07T04:18:02.361Z,18.50
2019-06-07T04:20:29.471Z,18.40
2019-06-07T04:22:55.588Z,18.50
2019-06-07T04:25:22.037Z,18.50
2019-06-07T04:27:48.328Z,18.50
2019-06-07T04:30:37.235Z,18.60
2019-06-07T04:33:03.434Z,18.70
2019-06-07T04:35:31.420Z,18.70
2019-06-07T04:37:58.629Z,18.70
2019-06-07T04:40:25.577Z,18.70
2019-06-07T04:42:52.329Z,18.70
2019-06-07T04:45:33.804Z,18.70
2019-06-07T04:47:47.975Z,18.70
2019-06-07T04:50:14.721Z,18.70
2019-06-07T04:52:44.906Z,18.70
2019-06-07T04:55:09.321Z,18.80
2019-06-07T04:57:37.597Z,18.90
2019-06-07T05:00:33.862Z,19.20
2019-06-07T05:02:36.923Z,19.30
2019-06-07T05:05:05.220Z,19.50
2019-06-07T05:07:33.017Z,19.70
2019-06-07T05:09:59.966Z,19.80
2019-06-07T05:12:26.204Z,19.80
2019-06-07T05:14:52.468Z,19.90
2019-06-07T05:17:18.735Z,20.00
2019-06-07T05:19:45.564Z,20.00
2019-06-07T05:22:11.918Z,19.90
2019-06-07T05:24:41.526Z,19.80
2019-06-07T05:27:06.552Z,19.90
2019-06-07T05:29:34.709Z,20.00
2019-06-07T05:32:01.954Z,20.10
2019-06-07T05:34:28.205Z,20.20
2019-06-07T05:37:10.984Z,20.30
2019-06-07T05:39:22.609Z,20.30
2019-06-07T05:41:48.968Z,20.20
2019-06-07T05:44:15.372Z,20.20
2019-06-07T05:46:46.655Z,20.10
2019-06-07T05:49:09.933Z,20.10
2019-06-07T05:51:38.088Z,20.10
2019-06-07T05:54:04.649Z,20.20
2019-06-07T05:56:31.011Z,20.30
2019-06-07T05:58:57.365Z,20.40
2019-06-07T06:01:42.861Z,20.40
2019-06-07T06:03:51.981Z,20.50
2019-06-07T06:06:19.344Z,20.50
2019-06-07T06:08:47.914Z,20.60
2019-06-07T06:11:13.828Z,20.70
2019-06-07T06:14:01.499Z,20.80
2019-06-07T06:16:08.362Z,20.90
2019-06-07T06:18:35.659Z,21.00
2019-06-07T06:21:16.128Z,21.10
2019-06-07T06:23:30.617Z,21.30
2019-06-07T06:25:58.180Z,21.40
2019-06-07T06:28:24.941Z,21.40
2019-06-07T06:30:51.307Z,21.40
2019-06-07T06:33:32.947Z,21.40
2019-06-07T06:35:48.911Z,21.50
2019-06-07T06:38:14.124Z,21.60
2019-06-07T06:40:44.293Z,21.70
2019-06-07T06:43:08.615Z,21.80
2019-06-07T06:45:34.966Z,22.00
2019-06-07T06:48:01.325Z,22.20
2019-06-07T06:50:27.769Z,22.10
2019-06-07T06:52:55.046Z,22.20
2019-06-07T06:55:21.689Z,22.40
2019-06-07T06:57:49.020Z,22.40
2019-06-07T07:00:18.713Z,22.60
2019-06-07T07:03:30.951Z,22.80
2019-06-07T07:05:13.837Z,22.90
2019-06-07T07:07:42.664Z,22.90
2019-06-07T07:10:11.023Z,23.10
2019-06-07T07:12:37.378Z,23.30
2019-06-07T07:15:13.546Z,23.50
2019-06-07T07:17:50.481Z,23.80
2019-06-07T07:20:08.259Z,24.10
2019-06-07T07:22:34.827Z,24.60
2019-06-07T07:25:01.277Z,25.00
2019-06-07T07:27:28.029Z,25.20
2019-06-07T07:30:34.213Z,25.20
2019-06-07T07:32:22.443Z,25.40
2019-06-07T07:34:51.787Z,25.80
2019-06-07T07:37:16.886Z,26.00
2019-06-07T07:39:45.247Z,26.10
2019-06-07T07:42:20.883Z,26.10
2019-06-07T07:44:39.719Z,26.10
2019-06-07T07:47:05.977Z,25.90
2019-06-07T07:49:32.257Z,25.70
2019-06-07T07:51:59.239Z,25.60
2019-06-07T07:54:25.809Z,25.40
2019-06-07T07:56:55.609Z,25.30
2019-06-07T07:59:20.218Z,25.30
2019-06-07T08:01:48.465Z,25.20
2019-06-07T08:04:14.730Z,25.20
2019-06-07T08:06:41.217Z,25.10
2019-06-07T08:09:07.762Z,25.00
2019-06-07T08:11:34.013Z,25.00
2019-06-07T08:14:00.537Z,25.10
2019-06-07T08:16:26.885Z,25.10
2019-06-07T08:18:57.210Z,25.10
2019-06-07T08:21:26.240Z,25.10
2019-06-07T08:23:51.647Z,25.10
2019-06-07T08:26:17.774Z,25.10
2019-06-07T08:28:44.059Z,25.10
2019-06-07T08:31:10.504Z,25.20
2019-06-07T08:33:36.677Z,25.20
2019-06-07T08:36:11.843Z,25.30
2019-06-07T08:38:46.991Z,25.40
2019-06-07T08:41:10.912Z,25.50
2019-06-07T08:43:27.617Z,25.70
2019-06-07T08:45:59.771Z,25.90
2019-06-07T08:48:27.875Z,26.20
2019-06-07T08:50:52.962Z,26.50
2019-06-07T08:53:18.416Z,26.60
2019-06-07T08:55:44.746Z,26.80
2019-06-07T08:58:11.010Z,27.10
2019-06-07T09:00:46.885Z,27.20
2019-06-07T09:03:07.508Z,27.40
2019-06-07T09:05:33.668Z,27.40
2019-06-07T09:08:25.216Z,27.40
2019-06-07T09:10:28.297Z,27.20
2019-06-07T09:13:03.014Z,27.20
2019-06-07T09:15:24.457Z,27.20
2019-06-07T09:20:35.604Z,27.20
2019-06-07T09:22:49.794Z,27.20
2019-06-07T09:25:21.024Z,27.40
2019-06-07T09:27:46.226Z,27.60
2019-06-07T09:30:18.800Z,27.80
2019-06-07T09:32:44.308Z,28.10
2019-06-07T09:35:17.029Z,28.40
2019-06-07T09:38:04.213Z,28.40
2019-06-07T09:40:21.700Z,28.60
2019-06-07T09:42:36.802Z,29.00
2019-06-07T09:45:08.728Z,29.00
2019-06-07T09:47:33.598Z,29.40
2019-06-07T09:50:05.989Z,29.50
2019-06-07T09:52:27.941Z,29.60
2019-06-07T09:55:22.803Z,29.90
2019-06-07T09:57:22.367Z,30.20
2019-06-07T09:59:48.712Z,30.30
2019-06-07T10:02:15.046Z,30.30
2019-06-07T10:04:41.311Z,30.30
2019-06-07T10:07:16.900Z,30.30
2019-06-07T10:10:09.886Z,30.30
2019-06-07T10:12:04.679Z,29.90
2019-06-07T10:14:31.345Z,29.60
2019-06-07T10:16:58.702Z,29.40
2019-06-07T10:19:25.532Z,29.40
2019-06-07T10:21:51.937Z,29.20
2019-06-07T10:24:18.284Z,29.20
2019-06-07T10:26:44.572Z,29.20
2019-06-07T10:29:11.033Z,29.30
2019-06-07T10:31:37.287Z,29.40
2019-06-07T10:34:04.432Z,29.40
2019-06-07T10:36:30.984Z,29.50
2019-06-07T10:38:57.292Z,29.60
2019-06-07T10:41:23.581Z,29.90
2019-06-07T10:43:49.813Z,29.90
2019-06-07T10:46:16.054Z,29.90
2019-06-07T10:48:42.425Z,30.10
2019-06-07T10:51:08.674Z,30.30
2019-06-07T10:53:35.115Z,30.20
2019-06-07T10:56:02.817Z,30.20
2019-06-07T10:58:29.222Z,30.20
2019-06-07T11:00:55.865Z,30.00
2019-06-07T11:03:22.235Z,29.90
2019-06-07T11:05:48.518Z,30.20
2019-06-07T11:08:15.392Z,30.30
2019-06-07T11:10:41.780Z,30.30
2019-06-07T11:13:08.290Z,30.40
2019-06-07T11:15:35.180Z,30.40
2019-06-07T11:18:01.425Z,30.40
2019-06-07T11:20:27.781Z,30.30
2019-06-07T11:22:54.028Z,30.40
2019-06-07T11:25:20.599Z,30.10
2019-06-07T11:27:47.387Z,29.80
2019-06-07T11:30:14.528Z,29.80
2019-06-07T11:32:41.426Z,29.70
2019-06-07T11:35:08.850Z,29.40
2019-06-07T11:37:35.314Z,29.30
2019-06-07T11:40:04.057Z,29.40
2019-06-07T11:42:30.509Z,29.50
2019-06-07T11:44:57.414Z,29.70
2019-06-07T11:47:23.933Z,29.70
2019-06-07T11:49:50.177Z,29.50
2019-06-07T11:52:17.691Z,29.30
2019-06-07T11:54:47.913Z,29.30
2019-06-07T11:57:13.010Z,29.10
2019-06-07T11:59:39.579Z,29.30
2019-06-07T12:02:07.018Z,29.40
2019-06-07T12:04:35.066Z,29.50
2019-06-07T12:07:01.437Z,29.50
2019-06-07T12:09:28.180Z,29.40
2019-06-07T12:11:54.757Z,29.00
2019-06-07T12:14:21.112Z,29.00
2019-06-07T12:16:47.357Z,29.00
2019-06-07T12:19:13.808Z,28.80
2019-06-07T12:21:40.064Z,28.70
2019-06-07T12:24:06.678Z,28.70
2019-06-07T12:26:33.170Z,28.60
2019-06-07T12:28:59.729Z,28.60
2019-06-07T12:31:26.109Z,28.50
2019-06-07T12:33:52.614Z,28.70
2019-06-07T12:36:19.932Z,28.80
2019-06-07T12:38:46.513Z,28.90
2019-06-07T12:41:13.993Z,28.80
2019-06-07T12:43:40.681Z,28.70
2019-06-07T12:46:07.147Z,28.60
2019-06-07T12:48:33.486Z,28.60
2019-06-07T12:50:59.730Z,28.60
2019-06-07T12:53:28.105Z,28.60
2019-06-07T12:55:54.470Z,28.60
2019-06-07T12:58:25.804Z,28.60
2019-06-07T13:00:49.361Z,28.50
2019-06-07T13:03:16.272Z,28.40
2019-06-07T13:05:42.674Z,28.30
2019-06-07T13:08:09.138Z,28.30
2019-06-07T13:10:35.737Z,28.20
2019-06-07T13:13:02.228Z,28.20
2019-06-07T13:15:28.496Z,28.10
2019-06-07T13:17:54.953Z,28.10
2019-06-07T13:20:22.668Z,28.00
2019-06-07T13:22:49.251Z,27.70
2019-06-07T13:25:16.513Z,27.60
2019-06-07T13:27:42.862Z,27.70
2019-06-07T13:30:11.460Z,27.80
2019-06-07T13:32:37.992Z,27.70
2019-06-07T13:35:06.235Z,27.70
2019-06-07T13:37:32.829Z,27.60
2019-06-07T13:39:59.107Z,27.50
2019-06-07T13:42:25.468Z,27.60
2019-06-07T13:44:51.872Z,27.70
2019-06-07T13:47:18.951Z,27.50
2019-06-07T13:49:45.492Z,27.60
2019-06-07T13:52:12.096Z,27.50
2019-06-07T13:54:38.448Z,27.40
2019-06-07T13:57:04.709Z,27.40
2019-06-07T13:59:30.950Z,27.30
2019-06-07T14:01:57.316Z,27.40
2019-06-07T14:04:24.885Z,27.20
2019-06-07T14:06:51.237Z,27.20
2019-06-07T14:09:17.493Z,27.30
2019-06-07T14:11:50.708Z,27.40
2019-06-07T14:14:12.249Z,27.20
2019-06-07T14:16:38.609Z,27.20
2019-06-07T14:19:04.864Z,27.20
2019-06-07T14:21:31.314Z,27.20
2019-06-07T14:23:57.573Z,27.10
2019-06-07T14:26:24.087Z,27.20
2019-06-07T14:28:51.684Z,27.20
2019-06-07T14:31:17.927Z,27.10
2019-06-07T14:33:44.319Z,27.10
2019-06-07T14:36:10.956Z,27.00
2019-06-07T14:38:37.790Z,27.00
2019-06-07T14:41:04.369Z,26.90
2019-06-07T14:43:31.752Z,26.90
2019-06-07T14:45:58.255Z,26.80
2019-06-07T14:48:25.812Z,26.80
2019-06-07T14:50:52.257Z,26.80
2019-06-07T14:53:18.697Z,26.90
2019-06-07T14:55:45.050Z,27.00
2019-06-07T14:58:11.411Z,27.00
2019-06-07T15:00:40.465Z,26.90
2019-06-07T15:03:06.909Z,26.90
2019-06-07T15:05:33.189Z,26.80
2019-06-07T15:07:59.732Z,26.90
2019-06-07T15:10:26.715Z,26.80
2019-06-07T15:12:53.250Z,26.80
2019-06-07T15:15:20.040Z,26.70
2019-06-07T15:17:46.273Z,26.70
2019-06-07T15:20:12.737Z,26.60
2019-06-07T15:22:39.175Z,26.60
2019-06-07T15:25:07.541Z,26.60
2019-06-07T15:27:33.893Z,26.60
2019-06-07T15:30:00.246Z,26.60
2019-06-07T15:32:28.167Z,26.60
2019-06-07T15:34:54.781Z,26.60
2019-06-07T15:37:21.131Z,26.60
2019-06-07T15:39:47.588Z,26.50
2019-06-07T15:42:13.933Z,26.50
2019-06-07T15:44:40.277Z,26.60
2019-06-07T15:47:06.625Z,26.40
2019-06-07T15:49:34.077Z,26.40
2019-06-07T15:52:00.793Z,26.40
2019-06-07T15:54:27.063Z,26.50
2019-06-07T15:56:53.300Z,26.50
2019-06-07T15:59:21.129Z,26.50
2019-06-07T16:01:47.593Z,26.40
2019-06-07T16:04:13.962Z,26.40
2019-06-07T16:06:40.572Z,26.40
2019-06-07T16:09:07.257Z,26.40
2019-06-07T16:11:34.648Z,26.50
2019-06-07T16:14:01.177Z,26.40
2019-06-07T16:16:27.742Z,26.30
2019-06-07T16:18:54.207Z,26.30
2019-06-07T16:21:20.476Z,26.30
2019-06-07T16:23:46.877Z,26.30
2019-06-07T16:26:13.395Z,26.20
2019-06-07T16:28:40.467Z,26.20
2019-06-07T16:31:07.201Z,26.10
2019-06-07T16:33:34.689Z,26.10
2019-06-07T16:36:01.377Z,26.10
2019-06-07T16:38:27.793Z,26.00
2019-06-07T16:40:54.029Z,25.90
2019-06-07T16:43:20.279Z,25.80
2019-06-07T16:45:46.525Z,25.80
2019-06-07T16:48:12.986Z,25.80
2019-06-07T16:50:40.804Z,25.80
2019-06-07T16:53:07.521Z,25.70
2019-06-07T16:55:34.166Z,25.70
2019-06-07T16:58:00.526Z,25.70
2019-06-07T17:00:27.673Z,25.60
2019-06-07T17:02:53.833Z,25.50
2019-06-07T17:05:20.281Z,25.40
2019-06-07T17:07:47.011Z,25.40
2019-06-07T17:10:15.289Z,25.30
2019-06-07T17:12:42.857Z,25.30
2019-06-07T17:15:12.423Z,25.30
2019-06-07T17:17:39.083Z,25.20
2019-06-07T17:20:07.891Z,25.20
2019-06-07T17:22:43.898Z,25.10
2019-06-07T17:25:23.470Z,25.20
2019-06-07T17:27:59.964Z,25.10
2019-06-07T17:30:46.048Z,25.00
2019-06-07T17:33:08.994Z,24.80
2019-06-07T17:35:35.696Z,24.70
2019-06-07T17:38:02.053Z,24.80
2019-06-07T17:40:28.510Z,24.70
2019-06-07T17:42:54.857Z,24.70
2019-06-07T17:45:21.505Z,24.70
2019-06-07T17:47:47.850Z,24.60
2019-06-07T17:50:15.401Z,24.60
2019-06-07T17:52:41.831Z,24.60
2019-06-07T17:55:09.204Z,24.50
2019-06-07T17:57:35.669Z,24.30
2019-06-07T18:00:27.535Z,24.30
2019-06-07T18:02:32.826Z,24.30
2019-06-07T18:04:59.257Z,24.20
2019-06-07T18:07:26.115Z,24.20
2019-06-07T18:09:54.273Z,24.20
2019-06-07T18:12:20.634Z,24.20
2019-06-07T18:14:47.961Z,24.00
2019-06-07T18:17:14.928Z,24.00
2019-06-07T18:19:41.489Z,23.90
2019-06-07T18:22:08.094Z,23.80
2019-06-07T18:24:34.550Z,23.80
2019-06-07T18:27:01.017Z,23.90
2019-06-07T18:29:27.271Z,23.70
2019-06-07T18:31:55.108Z,23.70
2019-06-07T18:34:21.726Z,23.70
2019-06-07T18:36:48.971Z,23.70
2019-06-07T18:39:15.377Z,23.70
2019-06-07T18:41:41.649Z,23.60
2019-06-07T18:44:20.808Z,23.50
2019-06-07T18:46:36.142Z,23.40
2019-06-07T18:49:02.613Z,23.30
2019-06-07T18:51:28.957Z,23.20
2019-06-07T18:53:55.751Z,23.20
2019-06-07T18:56:22.073Z,23.30
2019-06-07T18:58:49.103Z,23.20
2019-06-07T19:01:15.589Z,23.00
2019-06-07T19:03:42.062Z,22.80
2019-06-07T19:06:08.557Z,22.70
2019-06-07T19:08:34.881Z,22.50
2019-06-07T19:11:01.235Z,22.40
2019-06-07T19:13:27.492Z,22.40
2019-06-07T19:15:53.735Z,22.30
2019-06-07T19:18:20.146Z,22.20
2019-06-07T19:20:46.460Z,22.10
2019-06-07T19:23:12.824Z,22.10
2019-06-07T19:25:39.177Z,22.00
2019-06-07T19:28:05.630Z,22.00
2019-06-07T19:30:31.994Z,21.90
2019-06-07T19:32:59.670Z,21.70
2019-06-07T19:35:26.220Z,21.60
2019-06-07T19:37:53.650Z,21.60
2019-06-07T19:40:20.956Z,21.60
2019-06-07T19:42:47.314Z,21.50
2019-06-07T19:45:29.830Z,21.50
2019-06-07T19:47:42.561Z,21.50
2019-06-07T19:50:09.915Z,21.30
2019-06-07T19:52:36.371Z,21.20
2019-06-07T19:55:06.793Z,21.20
2019-06-07T19:57:33.450Z,21.10
2019-06-07T19:59:59.936Z,21.10
2019-06-07T20:02:26.189Z,21.10
2019-06-07T20:04:54.090Z,21.20
2019-06-07T20:07:21.031Z,21.30
2019-06-07T20:09:47.380Z,21.50
2019-06-07T20:12:14.000Z,21.80
2019-06-07T20:14:40.331Z,21.90
2019-06-07T20:17:06.680Z,22.10
2019-06-07T20:19:33.053Z,21.70
2019-06-07T20:22:00.921Z,21.50
2019-06-07T20:24:27.775Z,21.40
2019-06-07T20:26:54.128Z,21.20
2019-06-07T20:29:25.769Z,21.20
2019-06-07T20:31:48.929Z,21.10
2019-06-07T20:34:15.297Z,21.10
2019-06-07T20:36:41.653Z,20.80
2019-06-07T20:39:08.650Z,20.70
2019-06-07T20:41:34.900Z,20.60
2019-06-07T20:44:01.722Z,20.50
2019-06-07T20:46:28.334Z,20.50
2019-06-07T20:48:54.687Z,20.40
2019-06-07T20:51:20.929Z,20.30
2019-06-07T20:53:47.184Z,20.30
2019-06-07T20:56:13.745Z,20.20
2019-06-07T20:58:40.013Z,20.20
2019-06-07T21:01:06.924Z,20.30
2019-06-07T21:03:33.321Z,20.40
2019-06-07T21:06:01.445Z,20.40
2019-06-07T21:08:28.140Z,20.30
2019-06-07T21:10:54.395Z,20.30
2019-06-07T21:13:20.644Z,20.20
2019-06-07T21:15:49.166Z,20.30
2019-06-07T21:18:19.370Z,20.30
2019-06-07T21:20:43.528Z,20.30
2019-06-07T21:23:12.008Z,20.20
2019-06-07T21:25:38.355Z,20.20
2019-06-07T21:28:05.193Z,20.00
2019-06-07T21:30:31.769Z,19.90
2019-06-07T21:32:58.017Z,19.70
2019-06-07T21:35:24.469Z,19.80
2019-06-07T21:37:51.137Z,19.70
2019-06-07T21:40:17.825Z,19.80
2019-06-07T21:42:44.069Z,19.90
2019-06-07T21:45:11.839Z,19.90
2019-06-07T21:47:38.520Z,19.80
2019-06-07T21:50:06.703Z,19.70
2019-06-07T21:52:33.040Z,19.50
2019-06-07T21:54:59.283Z,19.40
2019-06-07T21:57:25.527Z,19.40
2019-06-07T21:59:51.791Z,19.40
2019-06-07T22:02:18.225Z,19.40
2019-06-07T22:04:44.477Z,19.40
2019-06-07T22:07:11.560Z,19.20
2019-06-07T22:09:37.916Z,19.30
2019-06-07T22:12:04.537Z,19.30
2019-06-07T22:14:31.429Z,19.30
2019-06-07T22:16:57.789Z,19.20
2019-06-07T22:19:24.446Z,19.10
2019-06-07T22:22:02.226Z,19.00
2019-06-07T22:24:19.062Z,19.00
2019-06-07T22:26:45.301Z,18.90
2019-06-07T22:29:12.418Z,19.00
2019-06-07T22:31:38.993Z,18.90
2019-06-07T22:34:06.733Z,19.00
2019-06-07T22:36:33.303Z,19.00
2019-06-07T22:38:59.558Z,19.00
2019-06-07T22:41:26.218Z,19.00
2019-06-07T22:43:52.588Z,19.00
2019-06-07T22:46:19.344Z,18.90
2019-06-07T22:48:45.996Z,18.90
2019-06-07T22:51:13.318Z,18.90
2019-06-07T22:53:41.201Z,18.80
2019-06-07T22:56:09.813Z,18.80
2019-06-07T22:58:36.199Z,18.90
2019-06-07T23:01:02.761Z,18.90
2019-06-07T23:03:29.106Z,18.80
2019-06-07T23:05:55.349Z,18.70
2019-06-07T23:08:21.729Z,18.80
2019-06-07T23:10:47.974Z,18.80
2019-06-07T23:13:15.433Z,18.70
2019-06-07T23:15:42.073Z,18.60
2019-06-07T23:18:09.383Z,18.60
2019-06-07T23:20:35.681Z,18.40
2019-06-07T23:23:02.054Z,18.40
2019-06-07T23:25:28.653Z,18.40
2019-06-07T23:27:54.914Z,18.40
2019-06-07T23:30:21.901Z,18.40
2019-06-07T23:32:48.111Z,18.30
2019-06-07T23:35:14.840Z,18.30
2019-06-07T23:37:41.534Z,18.30
2019-06-07T23:40:08.595Z,18.20
2019-06-07T23:42:35.586Z,18.20
2019-06-07T23:45:02.539Z,18.10
2019-06-07T23:47:29.117Z,18.00
2019-06-07T23:49:55.551Z,18.00
2019-06-07T23:52:22.172Z,18.00
2019-06-07T23:54:49.214Z,18.00
2019-06-07T23:57:16.003Z,18.00
2019-06-07T23:59:42.949Z,17.80
